Time;durP1;ratioP1;P1;durP2;ratioP2;P2;SDS_P1;SDS_P2;PMS_P1;PMS_P2;Temp;Humidity;BMP_temperature;BMP_pressure;BME280_temperature;BME280_humidity;BME280_pressure;Samples;Min_cycle;Max_cycle;Signal;HPM_P1;HPM_P2
2020/12/13 00:00:50;;;;;;;64.28;24.13;;;;;;;4.07;100.00;100428.94;4802129;29;20046;-87
2020/12/13 00:03:34;;;;;;;48.75;19.42;;;;;;;4.07;100.00;100428.09;4783395;29;20403;-87
2020/12/13 00:06:23;;;;;;;122.70;23.25;;;;;;;3.99;100.00;100441.91;4799410;29;20413;-87
2020/12/13 00:09:14;;;;;;;122.97;24.58;;;;;;;3.91;100.00;100445.09;4766069;29;20443;-87
2020/12/13 00:11:46;;;;;;;94.80;20.52;;;;;;;3.92;100.00;100453.94;4758393;29;20070;-87
2020/12/13 00:14:54;;;;;;;89.15;23.08;;;;;;;3.85;100.00;100450.84;4772275;29;20042;-87
2020/12/13 00:17:42;;;;;;;75.65;20.60;;;;;;;3.90;100.00;100454.06;4750798;29;20046;-88
2020/12/13 00:20:26;;;;;;;62.67;19.52;;;;;;;4.03;100.00;100451.38;4782756;29;20043;-87
2020/12/13 00:23:07;;;;;;;101.47;21.00;;;;;;;4.01;100.00;100453.31;4788095;29;20077;-87
2020/12/13 00:26:07;;;;;;;60.13;18.85;;;;;;;4.09;100.00;100455.47;4765718;29;20057;-87
2020/12/13 00:28:43;;;;;;;121.10;22.65;;;;;;;4.01;100.00;100455.97;4764769;29;20066;-87
2020/12/13 00:31:37;;;;;;;140.68;24.27;;;;;;;3.94;100.00;100454.69;4808525;29;20057;-87
2020/12/13 00:35:03;;;;;;;76.43;20.58;;;;;;;4.03;100.00;100444.28;4775091;29;20051;-87
2020/12/13 00:37:54;;;;;;;75.60;20.90;;;;;;;4.04;100.00;100442.47;4769811;29;20046;-87
2020/12/13 00:40:43;;;;;;;84.53;21.83;;;;;;;4.17;100.00;100453.97;4774269;29;20047;-87
2020/12/13 00:43:40;;;;;;;;;;;;;;;;;;;;;
2020/12/13 00:53:02;;;;;;;67.28;19.92;;;;;;;4.11;100.00;100478.38;4792181;29;20091;-87
2020/12/13 00:55:28;;;;;;;95.10;24.20;;;;;;;4.14;100.00;100485.31;4771118;29;20467;-87
2020/12/13 00:57:59;;;;;;;96.38;22.80;;;;;;;4.14;100.00;100470.16;4800056;29;20063;-87
2020/12/13 01:00:27;;;;;;;117.45;26.88;;;;;;;4.17;100.00;100467.28;4795257;29;20043;-87
2020/12/13 01:03:14;;;;;;;131.73;26.80;;;;;;;4.21;100.00;100463.47;4788476;29;20149;-87
2020/12/13 01:05:57;;;;;;;;;;;;;;;;;;;;;
2020/12/13 01:08:38;;;;;;;89.30;23.63;;;;;;;4.19;100.00;100470.69;4803241;29;20731;-87
2020/12/13 01:14:24;;;;;;;97.97;24.33;;;;;;;4.25;100.00;100473.91;4787396;29;20416;-87
2020/12/13 01:17:15;;;;;;;160.63;29.60;;;;;;;4.29;100.00;100472.75;4792070;29;20445;-87
2020/12/13 01:19:50;;;;;;;254.48;34.75;;;;;;;4.29;100.00;100464.75;4782819;29;20107;-88
2020/12/13 01:22:24;;;;;;;124.07;27.13;;;;;;;4.37;100.00;100473.06;4779993;29;20089;-87
2020/12/13 01:25:39;;;;;;;198.07;34.53;;;;;;;4.39;100.00;100480.00;4775754;29;20073;-87
2020/12/13 01:28:05;;;;;;;93.97;25.20;;;;;;;4.49;100.00;100479.34;4775862;29;20054;-86
2020/12/13 01:41:22;;;;;;;215.93;33.65;;;;;;;4.47;100.00;100500.78;4754617;29;20055;-86
2020/12/13 01:44:38;;;;;;;264.15;35.38;;;;;;;4.48;100.00;100513.16;4734874;30;20103;-87
2020/12/13 01:47:45;;;;;;;223.70;35.70;;;;;;;4.55;100.00;100514.44;4757545;29;20042;-87
2020/12/13 01:53:55;;;;;;;224.20;33.50;;;;;;;4.66;100.00;100526.16;4759114;29;20048;-87
2020/12/13 01:57:00;;;;;;;;;;;;;;;;;;;;;
2020/12/13 02:00:10;;;;;;;107.28;27.13;;;;;;;4.72;100.00;100534.59;4759994;29;20038;-87
2020/12/13 02:03:23;;;;;;;;;;;;;;;;;;;;;
2020/12/13 02:06:27;;;;;;;64.72;21.92;;;;;;;4.91;100.00;100544.81;4669040;29;20957;-87
2020/12/13 02:09:31;;;;;;;91.07;23.88;;;;;;;4.77;100.00;100541.41;4692627;30;20063;-87
2020/12/13 02:12:48;;;;;;;82.90;25.33;;;;;;;4.94;100.00;100546.44;4760101;29;20126;-87
2020/12/13 02:15:44;;;;;;;;;;;;;;;;;;;;;
2020/12/13 02:18:52;;;;;;;197.93;30.67;;;;;;;4.83;100.00;100546.31;4743602;29;20964;-87
2020/12/13 02:22:02;;;;;;;155.50;26.35;;;;;;;4.85;100.00;100557.75;4769351;29;20051;-87
2020/12/13 02:25:40;;;;;;;68.78;20.73;;;;;;;4.96;100.00;100551.66;4732184;30;20053;-88
2020/12/13 02:28:51;;;;;;;;;;;;;;;;;;;;;
2020/12/13 02:31:44;;;;;;;85.97;22.83;;;;;;;4.75;100.00;100552.19;4666575;30;20054;-88
2020/12/13 02:34:35;;;;;;;;;;;;;;;;;;;;;
2020/12/13 02:37:33;;;;;;;59.90;21.75;;;;;;;4.94;100.00;100561.59;4702689;30;20061;-87
2020/12/13 02:41:02;;;;;;;77.50;22.60;;;;;;;4.79;100.00;100556.34;4714545;29;20046;-87
2020/12/13 02:44:29;;;;;;;81.72;22.80;;;;;;;4.74;100.00;100558.47;4785272;29;20442;-88
2020/12/13 03:04:59;;;;;;;65.28;22.65;;;;;;;4.93;100.00;100578.53;4654318;30;20119;-88
2020/12/13 03:18:02;;;;;;;;;;;;;;;;;;;;;
2020/12/13 03:21:21;;;;;;;;;;;;;;;;;;;;;
2020/12/13 03:25:13;;;;;;;;;;;;;;;;;;;;;
2020/12/13 03:28:26;;;;;;;;;;;;;;;;;;;;;
2020/12/13 03:34:59;;;;;;;;;;;;;;;;;;;;;
2020/12/13 03:48:41;;;;;;;;;;;;;;;;;;;;;
2020/12/13 03:55:42;;;;;;;101.38;23.38;;;;;;;5.08;100.00;100605.00;4559015;31;20059;-88
2020/12/13 04:06:10;;;;;;;91.90;24.33;;;;;;;4.89;100.00;100618.75;4659845;30;20050;-88
2020/12/13 04:09:40;;;;;;;;;;;;;;;;;;;;;
2020/12/13 04:12:58;;;;;;;82.10;22.77;;;;;;;4.98;100.00;100630.59;4586597;30;20064;-88
2020/12/13 04:19:41;;;;;;;;;;;;;;;;;;;;;
2020/12/13 04:25:48;;;;;;;97.70;25.42;;;;;;;4.90;100.00;100624.94;4645959;30;20069;-87
2020/12/13 04:32:15;;;;;;;;;;;;;;;;;;;;;
2020/12/13 04:34:57;;;;;;;69.00;21.65;;;;;;;4.98;100.00;100637.75;4684402;30;20056;-87
2020/12/13 04:44:42;;;;;;;;;;;;;;;;;;;;;
2020/12/13 04:50:55;;;;;;;100.68;23.70;;;;;;;4.97;100.00;100657.38;4726121;30;20597;-87
2020/12/13 04:53:45;;;;;;;88.07;24.90;;;;;;;5.00;100.00;100651.84;4750273;30;22689;-87
2020/12/13 05:03:41;;;;;;;;;;;;;;;;;;;;;
2020/12/13 05:09:52;;;;;;;74.32;21.73;;;;;;;5.09;100.00;100672.53;4705474;30;20583;-87
2020/12/13 05:12:36;;;;;;;85.45;24.08;;;;;;;5.05;100.00;100676.38;4763894;29;20051;-87
2020/12/13 05:15:35;;;;;;;71.57;22.60;;;;;;;5.04;100.00;100674.69;4742540;29;20051;-87
2020/12/13 05:18:23;;;;;;;89.25;23.73;;;;;;;5.04;100.00;100672.00;4794753;29;21190;-87
2020/12/13 05:21:11;;;;;;;90.57;24.58;;;;;;;4.99;100.00;100676.78;4739128;29;20404;-87
2020/12/13 05:24:01;;;;;;;105.22;25.65;;;;;;;5.02;100.00;100674.78;4722983;30;20134;-87
2020/12/13 05:36:25;;;;;;;110.10;26.00;;;;;;;5.01;100.00;100667.72;4764483;29;20099;-88
2020/12/13 05:42:47;;;;;;;140.98;28.02;;;;;;;5.01;100.00;100666.91;4745057;29;20051;-88
2020/12/13 05:46:20;;;;;;;120.68;28.83;;;;;;;5.05;100.00;100660.38;4763396;29;20078;-88
2020/12/13 05:52:16;;;;;;;126.28;29.20;;;;;;;5.09;100.00;100668.06;4719156;30;20095;-88
2020/12/13 05:55:31;;;;;;;;;;;;;;;;;;;;;
2020/12/13 05:58:21;;;;;;;110.43;28.08;;;;;;;5.10;100.00;100684.94;4751310;29;20759;-88
2020/12/13 06:05:32;;;;;;;130.57;29.08;;;;;;;5.09;100.00;100688.53;4751622;29;20056;-87
2020/12/13 06:08:53;;;;;;;161.88;29.15;;;;;;;5.03;100.00;100688.97;4800294;29;20475;-88
2020/12/13 06:11:51;;;;;;;135.60;31.55;;;;;;;5.13;100.00;100698.06;4697092;29;20122;-87
2020/12/13 06:21:46;;;;;;;116.32;28.20;;;;;;;5.17;100.00;100702.22;4780515;29;20122;-87
2020/12/13 06:24:30;;;;;;;150.98;27.88;;;;;;;5.23;100.00;100704.47;4782249;29;20061;-88
2020/12/13 06:26:59;;;;;;;159.20;29.10;;;;;;;5.22;100.00;100705.41;4788613;29;20262;-87
2020/12/13 06:29:41;;;;;;;170.13;30.02;;;;;;;5.29;100.00;100702.34;4782908;29;20054;-88
2020/12/13 06:32:27;;;;;;;223.48;33.67;;;;;;;5.26;100.00;100700.75;4778170;29;20077;-88
2020/12/13 06:35:19;;;;;;;312.52;38.58;;;;;;;5.36;100.00;100701.81;4799754;29;20517;-87
2020/12/13 06:38:01;;;;;;;294.38;36.28;;;;;;;5.34;100.00;100702.88;4786308;29;20076;-87
2020/12/13 06:40:51;;;;;;;320.42;37.30;;;;;;;5.41;100.00;100709.50;4752398;29;20061;-87
2020/12/13 06:43:39;;;;;;;360.00;42.33;;;;;;;5.42;100.00;100705.88;4772651;29;20046;-88
2020/12/13 06:46:53;;;;;;;275.02;37.88;;;;;;;5.44;100.00;100709.28;4793995;29;20126;-88
2020/12/13 06:49:28;;;;;;;338.77;38.42;;;;;;;5.45;100.00;100708.31;4804935;29;20517;-87
2020/12/13 06:52:15;;;;;;;349.10;37.13;;;;;;;5.48;100.00;100705.44;4784732;29;20501;-88
2020/12/13 06:55:15;;;;;;;200.98;34.42;;;;;;;5.53;100.00;100718.47;4808558;29;20050;-87
2020/12/13 06:58:17;;;;;;;264.17;37.30;;;;;;;5.54;100.00;100715.69;4742328;29;20413;-87
2020/12/13 07:00:51;;;;;;;351.17;38.60;;;;;;;5.57;100.00;100723.47;4776340;29;20117;-87
2020/12/13 07:10:40;;;;;;;340.25;38.63;;;;;;;5.60;100.00;100725.94;4763260;29;20058;-88
2020/12/13 07:13:29;;;;;;;374.35;44.80;;;;;;;5.74;100.00;100727.66;4801722;29;20147;-87
2020/12/13 07:20:09;;;;;;;391.50;44.60;;;;;;;5.67;100.00;100736.16;4727416;29;20089;-87
2020/12/13 07:22:46;;;;;;;451.33;47.47;;;;;;;5.68;100.00;100736.06;4792841;29;20102;-87
2020/12/13 07:26:14;;;;;;;321.25;41.97;;;;;;;5.67;100.00;100749.53;4766385;29;20073;-87
2020/12/13 07:28:32;;;;;;;371.98;44.90;;;;;;;5.76;100.00;100754.25;4773764;29;20456;-87
2020/12/13 07:31:27;;;;;;;238.77;37.35;;;;;;;5.72;100.00;100753.59;4801220;29;20150;-87
2020/12/13 07:34:23;;;;;;;286.02;38.63;;;;;;;5.74;100.00;100753.47;4753999;29;20552;-87
2020/12/13 07:37:17;;;;;;;;;;;;;;;;;;;;;
2020/12/13 07:39:46;;;;;;;257.75;40.50;;;;;;;5.80;100.00;100755.75;4787213;29;20758;-85
2020/12/13 07:42:48;;;;;;;;;;;;;;;;;;;;;
2020/12/13 07:49:17;;;;;;;375.05;44.78;;;;;;;5.77;100.00;100758.59;4720546;30;20112;-86
2020/12/13 07:52:17;;;;;;;332.85;43.40;;;;;;;5.79;100.00;100762.88;4735974;29;20496;-87
2020/12/13 07:58:13;;;;;;;407.95;46.40;;;;;;;5.83;100.00;100771.56;4713064;30;20048;-87
2020/12/13 08:01:41;;;;;;;;;;;;;;;;;;;;;
2020/12/13 08:04:32;;;;;;;316.02;40.45;;;;;;;5.86;100.00;100774.00;4728646;30;20416;-87
2020/12/13 08:07:32;;;;;;;;;;;;;;;;;;;;;
2020/12/13 08:14:32;;;;;;;260.88;41.50;;;;;;;5.99;100.00;100789.19;4749373;30;20450;-87
2020/12/13 08:17:17;;;;;;;254.07;39.58;;;;;;;6.00;100.00;100796.25;4722271;30;20447;-86
2020/12/13 08:20:04;;;;;;;243.13;40.35;;;;;;;6.02;100.00;100788.97;4720245;30;20546;-87
2020/12/13 08:22:52;;;;;;;230.00;38.25;;;;;;;6.05;100.00;100794.97;4722042;29;20044;-87
2020/12/13 08:26:16;;;;;;;246.07;38.67;;;;;;;6.06;100.00;100795.81;4793197;29;20055;-87
2020/12/13 08:28:55;;;;;;;221.63;37.53;;;;;;;6.04;100.00;100801.25;4760619;29;20416;-87
2020/12/13 08:31:56;;;;;;;205.23;37.47;;;;;;;6.08;100.00;100800.09;4770354;29;20056;-87
2020/12/13 08:34:26;;;;;;;230.32;36.75;;;;;;;6.10;100.00;100803.50;4770639;29;20082;-87
2020/12/13 08:37:17;;;;;;;188.10;34.10;;;;;;;6.09;100.00;100800.94;4779875;29;20146;-87
2020/12/13 08:39:48;;;;;;;192.23;35.38;;;;;;;6.11;100.00;100802.53;4750106;29;20115;-86
2020/12/13 08:42:47;;;;;;;;;;;;;;;;;;;;;
2020/12/13 08:45:33;;;;;;;168.90;33.67;;;;;;;6.22;100.00;100817.81;4795488;29;20439;-87
2020/12/13 08:48:03;;;;;;;161.80;34.42;;;;;;;6.25;100.00;100814.06;4784082;29;20043;-86
2020/12/13 08:50:54;;;;;;;151.48;31.58;;;;;;;6.26;100.00;100823.81;4787296;29;20517;-86
2020/12/13 08:53:35;;;;;;;166.68;33.25;;;;;;;6.25;100.00;100822.94;4804313;29;20066;-86
2020/12/13 08:56:05;;;;;;;154.48;31.83;;;;;;;6.26;100.00;100823.81;4784224;29;20104;-87
2020/12/13 08:58:52;;;;;;;139.98;30.83;;;;;;;6.32;100.00;100829.56;4805372;29;20054;-87
2020/12/13 09:01:26;;;;;;;147.50;30.65;;;;;;;6.30;100.00;100831.50;4762162;29;20053;-86
2020/12/13 09:03:55;;;;;;;126.95;30.08;;;;;;;6.41;100.00;100833.38;4763760;29;20043;-87
2020/12/13 09:06:39;;;;;;;134.30;31.15;;;;;;;6.36;100.00;100832.88;4757613;29;20066;-86
2020/12/13 09:09:30;;;;;;;141.95;30.95;;;;;;;6.36;100.00;100837.34;4797293;29;20393;-86
2020/12/13 09:12:02;;;;;;;130.02;30.88;;;;;;;6.38;100.00;100838.13;4790528;29;20091;-85
2020/12/13 09:14:51;;;;;;;147.52;31.77;;;;;;;6.38;100.00;100843.47;4812248;29;20130;-86
2020/12/13 09:17:40;;;;;;;136.07;31.15;;;;;;;6.43;100.00;100842.16;4787022;29;20444;-86
2020/12/13 09:20:08;;;;;;;121.00;30.02;;;;;;;6.44;100.00;100843.84;4805045;29;20597;-86
2020/12/13 09:22:39;;;;;;;129.45;30.55;;;;;;;6.49;100.00;100854.22;4767358;29;20058;-86
2020/12/13 09:25:13;;;;;;;131.40;32.15;;;;;;;6.48;100.00;100868.56;4774665;29;20043;-85
2020/12/13 09:27:38;;;;;;;117.05;29.50;;;;;;;6.54;100.00;100862.78;4768732;29;20134;-85
2020/12/13 09:30:16;;;;;;;131.05;30.83;;;;;;;6.56;100.00;100868.03;4778691;29;20051;-86
2020/12/13 09:33:10;;;;;;;123.03;29.75;;;;;;;6.55;100.00;100867.19;4764135;29;20050;-87
2020/12/13 09:36:09;;;;;;;143.15;32.58;;;;;;;6.56;100.00;100873.38;4752282;29;20047;-88
2020/12/13 09:38:34;;;;;;;;;;;;;;;6.62;100.00;100868.41;4776146;29;20046;-87
2020/12/13 09:43:58;;;;;;;116.53;31.25;;;;;;;6.72;100.00;100878.47;4768553;29;20100;-86
2020/12/13 09:46:57;;;;;;;124.10;30.65;;;;;;;6.72;100.00;100879.31;4777016;29;20054;-85
2020/12/13 09:49:33;;;;;;;114.35;29.55;;;;;;;6.76;100.00;100879.97;4779960;29;20051;-85
2020/12/13 09:52:46;;;;;;;105.47;29.48;;;;;;;6.75;100.00;100891.63;4793115;29;20038;-86
2020/12/13 09:55:17;;;;;;;107.75;28.83;;;;;;;6.82;100.00;100890.22;4802578;29;20123;-84
2020/12/13 09:57:55;;;;;;;107.07;28.75;;;;;;;6.78;100.00;100888.72;4779672;29;20078;-84
2020/12/13 10:00:43;;;;;;;100.20;28.73;;;;;;;6.76;100.00;100893.34;4794163;29;20038;-85
2020/12/13 10:03:14;;;;;;;98.45;29.35;;;;;;;6.77;100.00;100900.38;4783836;29;20130;-85
2020/12/13 10:11:09;;;;;;;95.75;31.30;;;;;;;6.81;100.00;100900.03;4774352;29;20054;-84
2020/12/13 10:13:43;;;;;;;88.78;27.92;;;;;;;6.87;100.00;100903.25;4754119;29;20054;-86
2020/12/13 10:16:19;;;;;;;91.28;26.40;;;;;;;6.93;100.00;100903.66;4782525;29;20060;-86
2020/12/13 10:18:54;;;;;;;73.72;25.48;;;;;;;6.90;100.00;100895.00;4773873;29;20058;-85
2020/12/13 10:21:49;;;;;;;70.72;27.27;;;;;;;6.92;100.00;100899.28;4780975;29;20047;-86
2020/12/13 10:24:37;;;;;;;69.97;25.98;;;;;;;7.06;100.00;100897.41;4764182;29;20047;-86
2020/12/13 10:27:05;;;;;;;66.07;24.63;;;;;;;7.05;100.00;100896.53;4779216;29;20043;-85
2020/12/13 10:30:13;;;;;;;64.22;24.67;;;;;;;7.07;100.00;100896.47;4766310;29;20047;-85
2020/12/13 10:32:50;;;;;;;59.50;23.42;;;;;;;7.05;100.00;100895.69;4772815;29;20413;-85
2020/12/13 10:38:32;;;;;;;57.78;23.63;;;;;;;7.08;100.00;100895.47;4782868;29;20104;-86
2020/12/13 10:41:00;;;;;;;57.08;22.13;;;;;;;7.08;100.00;100898.16;4747784;29;20988;-84
2020/12/13 10:43:28;;;;;;;49.38;20.75;;;;;;;7.11;100.00;100896.13;4785658;29;20062;-85
2020/12/13 10:46:01;;;;;;;45.90;20.48;;;;;;;7.15;100.00;100891.38;4778768;29;20059;-86
2020/12/13 10:49:00;;;;;;;;;;;;;;;;;;;;;
2020/12/13 10:51:38;;;;;;;45.28;21.55;;;;;;;7.11;100.00;100881.88;4777674;29;20039;-84
2020/12/13 10:54:35;;;;;;;38.83;18.25;;;;;;;7.15;100.00;100886.03;4782607;29;20129;-86
2020/12/13 10:57:34;;;;;;;41.42;19.67;;;;;;;7.17;99.98;100882.28;4799318;29;20070;-86
2020/12/13 11:00:11;;;;;;;44.33;19.48;;;;;;;7.21;99.81;100880.22;4792887;29;20077;-85
2020/12/13 11:02:43;;;;;;;44.38;19.55;;;;;;;7.22;99.72;100879.25;4776107;29;20056;-87
2020/12/13 11:05:20;;;;;;;42.50;20.92;;;;;;;7.13;99.95;100878.13;4766705;29;20051;-86
2020/12/13 11:07:48;;;;;;;39.70;19.13;;;;;;;7.15;99.77;100880.69;4728173;30;20514;-87
2020/12/13 11:10:19;;;;;;;40.22;20.70;;;;;;;7.13;100.00;100882.63;4761223;29;20070;-85
2020/12/13 11:13:50;;;;;;;41.75;20.15;;;;;;;7.19;99.31;100883.00;4773086;29;20048;-85
2020/12/13 11:16:13;;;;;;;41.65;18.67;;;;;;;7.13;98.89;100877.28;4686171;30;20072;-86
2020/12/13 11:18:39;;;;;;;33.17;18.95;;;;;;;7.16;98.90;100887.75;4708616;30;20044;-84
2020/12/13 11:21:27;;;;;;;34.17;18.05;;;;;;;7.12;98.41;100873.72;4718293;30;20529;-85
2020/12/13 11:24:28;;;;;;;34.00;18.90;;;;;;;7.13;98.30;100878.13;4732819;30;20125;-86
2020/12/13 11:27:21;;;;;;;30.90;17.83;;;;;;;7.19;98.57;100883.00;4709149;30;21787;-86
2020/12/13 11:30:15;;;;;;;34.60;18.95;;;;;;;7.04;98.88;100880.59;4734738;30;20158;-85
2020/12/13 11:33:15;;;;;;;38.70;19.63;;;;;;;6.98;98.18;100882.78;4741019;30;20039;-85
2020/12/13 11:35:46;;;;;;;30.42;19.23;;;;;;;6.93;97.66;100886.75;4746903;30;20058;-85
2020/12/13 11:38:17;;;;;;;31.10;18.33;;;;;;;6.94;97.61;100883.97;4732818;29;20043;-85
2020/12/13 11:40:57;;;;;;;35.88;19.23;;;;;;;6.95;97.45;100890.16;4741267;30;20059;-85
2020/12/13 11:43:32;;;;;;;;;;;;;;;6.94;97.57;100894.66;4747222;30;20478;-85
2020/12/13 11:46:01;;;;;;;30.25;16.67;;;;;;;6.97;96.91;100886.41;4741636;30;19959;-85
2020/12/13 11:48:53;;;;;;;29.92;18.00;;;;;;;6.95;96.76;100885.69;4779884;29;20085;-84
2020/12/13 11:51:25;;;;;;;36.50;19.88;;;;;;;6.93;96.93;100882.25;4749646;30;20040;-84
2020/12/13 11:53:53;;;;;;;33.15;19.13;;;;;;;7.00;96.77;100878.16;4754148;30;20056;-86
2020/12/13 11:56:31;;;;;;;31.42;20.55;;;;;;;7.05;96.28;100885.84;4723108;30;20491;-85
2020/12/13 11:59:05;;;;;;;32.22;17.63;;;;;;;7.14;95.91;100890.53;4742142;30;20081;-85
2020/12/13 12:01:34;;;;;;;29.33;17.00;;;;;;;7.10;95.26;100894.41;4743849;30;20051;-84
2020/12/13 12:04:02;;;;;;;26.07;15.13;;;;;;;7.11;94.62;100895.25;4717898;30;20490;-84
2020/12/13 12:06:32;;;;;;;30.08;16.05;;;;;;;7.21;94.49;100890.91;4743109;30;20569;-85
2020/12/13 12:09:01;;;;;;;28.10;17.08;;;;;;;7.26;94.87;100883.41;4718559;30;20702;-86
2020/12/13 12:11:35;;;;;;;33.83;17.27;;;;;;;7.18;95.38;100888.47;4718377;30;20071;-85
2020/12/13 12:14:33;;;;;;;28.02;16.05;;;;;;;7.25;94.43;100887.06;4737387;30;20098;-85
2020/12/13 12:17:23;;;;;;;26.90;15.68;;;;;;;7.15;94.14;100880.69;4747141;30;20466;-85
2020/12/13 12:19:52;;;;;;;26.05;14.18;;;;;;;7.10;93.86;100877.50;4749082;30;20052;-83
2020/12/13 12:22:20;;;;;;;22.67;14.30;;;;;;;7.18;94.25;100875.09;4738030;30;20055;-84
2020/12/13 12:24:51;;;;;;;24.10;14.32;;;;;;;7.23;94.67;100886.31;4712730;30;20053;-85
2020/12/13 12:27:16;;;;;;;23.00;14.30;;;;;;;7.16;94.21;100882.41;4735991;30;20056;-85
2020/12/13 12:54:39;;;;;;;19.15;10.65;;;;;;;6.87;93.11;100874.66;5370016;24;20058;-89
2020/12/13 12:57:29;;;;;;;;;;;;;;;;;;;;;
2020/12/13 13:02:44;;;;;;;16.42;8.48;;;;;;;6.71;92.16;100874.06;4783611;29;20054;-85
2020/12/13 13:05:22;;;;;;;16.17;9.00;;;;;;;6.69;92.32;100868.00;4798262;29;20564;-86
2020/12/13 13:07:53;;;;;;;20.65;9.20;;;;;;;6.74;92.75;100868.50;4793218;29;20512;-85
2020/12/13 13:10:23;;;;;;;18.20;9.77;;;;;;;6.70;92.06;100869.69;4755453;29;20466;-84
2020/12/13 13:13:15;;;;;;;16.30;9.02;;;;;;;6.66;91.87;100869.91;4793790;29;20443;-84
2020/12/13 13:15:51;;;;;;;17.45;8.82;;;;;;;6.57;92.91;100865.22;4774715;29;20094;-85
2020/12/13 13:18:31;;;;;;;17.80;8.23;;;;;;;6.55;92.77;100861.81;4755175;29;20127;-85
2020/12/13 13:55:47;;;;;;;13.40;6.65;;;;;;;6.21;93.57;100868.69;4759028;29;20451;-88
2020/12/13 14:01:18;;;;;;;19.05;8.65;;;;;;;6.11;94.08;100869.34;4778819;29;20087;-86
2020/12/13 14:03:43;;;;;;;14.07;7.22;;;;;;;6.12;94.26;100859.50;4746637;30;20062;-87
2020/12/13 14:06:26;;;;;;;;;;;;;;;;;;;;;
2020/12/13 14:09:00;;;;;;;13.57;6.15;;;;;;;6.12;94.04;100859.50;4793160;29;20051;-86
2020/12/13 14:11:30;;;;;;;13.68;6.45;;;;;;;6.07;94.28;100864.31;4782117;29;20501;-86
2020/12/13 14:14:03;;;;;;;12.85;7.97;;;;;;;6.03;93.99;100863.66;4784853;29;20483;-85
2020/12/13 14:16:35;;;;;;;11.73;6.85;;;;;;;6.03;94.54;100854.81;4778358;29;20050;-86
2020/12/13 14:19:01;;;;;;;13.98;6.95;;;;;;;5.99;94.41;100854.16;4775913;29;20048;-86
2020/12/13 14:21:33;;;;;;;15.88;8.35;;;;;;;5.96;94.65;100852.53;4766733;29;20130;-86
2020/12/13 14:55:14;;;;;;;20.67;7.47;;;;;;;5.51;96.26;100828.03;4670319;30;20468;-87
2020/12/13 14:57:40;;;;;;;17.88;8.43;;;;;;;5.44;96.76;100832.91;4704570;30;20143;-87
2020/12/13 15:00:10;;;;;;;19.10;8.43;;;;;;;5.40;97.16;100833.22;4678142;30;20061;-87
2020/12/13 15:02:36;;;;;;;20.65;9.38;;;;;;;5.36;96.66;100819.25;4714425;30;20053;-88
2020/12/13 15:05:20;;;;;;;20.88;8.57;;;;;;;5.34;97.39;100820.28;4727952;30;20450;-88
2020/12/13 15:07:53;;;;;;;17.00;8.93;;;;;;;5.33;97.40;100813.25;4758593;29;20055;-88
2020/12/13 15:10:21;;;;;;;18.55;8.63;;;;;;;5.26;96.86;100808.31;4787219;29;20062;-88
2020/12/13 15:12:48;;;;;;;14.55;8.65;;;;;;;5.25;97.44;100809.28;4767706;29;20490;-88
2020/12/13 15:15:42;;;;;;;;;;;;;;;;;;;;;
2020/12/13 16:07:02;;;;;;;17.15;9.55;;;;;;;5.01;97.78;100800.25;4659862;30;20104;-87
2020/12/13 16:10:17;;;;;;;22.38;9.88;;;;;;;5.01;97.65;100797.59;4646756;30;20049;-87
2020/12/13 16:13:01;;;;;;;24.65;10.70;;;;;;;5.01;97.42;100793.09;4686576;30;21048;-87
2020/12/13 16:16:09;;;;;;;20.48;10.40;;;;;;;5.06;98.03;100795.47;4670307;30;20514;-87
2020/12/13 16:25:13;;;;;;;;;;;;;;;;;;;;;
2020/12/13 16:28:26;;;;;;;17.10;8.75;;;;;;;5.19;96.64;100782.16;4670990;30;20737;-86
2020/12/13 16:31:11;;;;;;;;;;;;;;;;;;;;;
2020/12/13 16:56:01;;;;;;;14.32;7.10;;;;;;;5.51;93.99;100774.63;4662252;30;20153;-86
2020/12/13 16:58:37;;;;;;;15.07;6.90;;;;;;;5.47;94.27;100767.78;4648612;30;20414;-87
2020/12/13 17:01:20;;;;;;;16.55;7.15;;;;;;;5.43;94.49;100774.28;4628060;30;20048;-87
2020/12/13 17:03:48;;;;;;;19.63;7.07;;;;;;;5.42;94.52;100767.25;4701313;30;20119;-87
2020/12/13 17:06:30;;;;;;;14.40;6.82;;;;;;;5.44;94.52;100768.00;4724867;30;20527;-87
2020/12/13 17:08:56;;;;;;;15.93;6.13;;;;;;;5.42;94.58;100767.25;4747203;29;20043;-87
2020/12/13 17:11:30;;;;;;;14.60;7.03;;;;;;;5.41;94.67;100762.88;4735726;29;20481;-87
2020/12/13 17:14:36;;;;;;;17.10;6.55;;;;;;;5.40;94.35;100758.50;4747376;29;20051;-88
2020/12/13 17:17:36;;;;;;;16.05;6.28;;;;;;;5.44;93.93;100752.00;4755614;29;20054;-87
2020/12/13 17:20:09;;;;;;;20.80;6.90;;;;;;;5.43;94.30;100750.25;4787048;29;20046;-87
2020/12/13 17:22:35;;;;;;;13.77;6.18;;;;;;;5.42;94.67;100738.75;4763706;29;20795;-87
2020/12/13 17:25:24;;;;;;;;;;;;;;;;;;;;;
2020/12/13 17:28:10;;;;;;;11.80;5.82;;;;;;;5.47;93.64;100734.91;4800951;29;20043;-87
2020/12/13 17:30:36;;;;;;;15.00;6.47;;;;;;;5.48;93.37;100729.47;4758315;30;20067;-87
2020/12/13 17:33:05;;;;;;;11.70;5.93;;;;;;;5.48;93.70;100731.25;4769398;29;20512;-88
2020/12/13 17:35:38;;;;;;;14.00;5.60;;;;;;;5.48;93.60;100721.47;4778471;29;20047;-89
2020/12/13 17:38:19;;;;;;;12.63;5.30;;;;;;;5.42;93.45;100721.88;4749644;29;20073;-87
2020/12/13 17:41:20;;;;;;;;;;;;;;;;;;;;;
2020/12/13 17:47:10;;;;;;;10.77;4.75;;;;;;;5.44;93.44;100730.63;4782596;29;20224;-89
2020/12/13 17:49:42;;;;;;;13.52;6.05;;;;;;;5.46;92.94;100718.03;4789015;29;20475;-88
2020/12/13 17:52:34;;;;;;;;;;;;;;;;;;;;;
2020/12/13 17:58:52;;;;;;;15.02;5.60;;;;;;;5.57;92.48;100720.81;4777065;29;20078;-88
2020/12/13 18:01:20;;;;;;;11.32;5.72;;;;;;;5.56;92.22;100716.41;4742924;29;20570;-85
2020/12/13 18:03:46;;;;;;;14.53;6.27;;;;;;;5.58;92.05;100713.63;4764774;29;20043;-89
2020/12/13 18:06:30;;;;;;;12.20;5.28;;;;;;;5.58;92.09;100717.19;4761517;29;20069;-87
2020/12/13 18:08:58;;;;;;;10.07;4.55;;;;;;;5.59;91.60;100710.03;4795735;29;20137;-87
2020/12/13 18:11:37;;;;;;;13.85;5.85;;;;;;;5.56;92.16;100713.75;4785910;29;20046;-88
2020/12/13 18:14:03;;;;;;;18.38;5.45;;;;;;;5.59;91.69;100713.56;4793624;29;20055;-88
2020/12/13 18:16:37;;;;;;;10.88;5.32;;;;;;;5.57;91.55;100726.16;4770911;29;20486;-88
2020/12/13 18:19:14;;;;;;;10.68;4.82;;;;;;;5.59;91.44;100718.03;4782942;29;20070;-87
2020/12/13 18:21:53;;;;;;;10.80;5.45;;;;;;;5.56;91.63;100711.06;4774748;29;20047;-88
2020/12/13 18:24:27;;;;;;;13.43;5.40;;;;;;;5.56;91.68;100710.22;4763680;29;20517;-87
2020/12/13 18:27:23;;;;;;;11.23;5.22;;;;;;;5.61;91.08;100721.47;4772563;29;20055;-89
2020/12/13 18:30:12;;;;;;;14.48;5.30;;;;;;;5.61;90.17;100716.13;4768465;29;20042;-91
2020/12/13 18:32:55;;;;;;;12.50;4.43;;;;;;;5.63;90.16;100713.34;4776141;29;20049;-89
2020/12/13 18:35:48;;;;;;;;;;;;;;;;;;;;;
2020/12/13 18:38:14;;;;;;;10.68;4.28;;;;;;;5.60;90.13;100715.25;4788834;29;20039;-87
2020/12/13 18:40:45;;;;;;;12.00;4.93;;;;;;;5.60;89.67;100719.75;4767943;29;20470;-88
2020/12/13 18:43:25;;;;;;;13.75;5.20;;;;;;;5.59;89.71;100718.91;4765474;29;20042;-88
2020/12/13 18:46:15;;;;;;;14.32;5.05;;;;;;;5.59;90.19;100718.91;4765951;29;20064;-90
2020/12/13 18:48:44;;;;;;;;;;;;;;;5.57;89.97;100710.13;4761809;29;20116;-88
2020/12/13 18:51:51;;;;;;;11.70;4.53;;;;;;;5.59;89.29;100707.34;4765889;29;20303;-88
2020/12/13 18:54:17;;;;;;;11.38;4.72;;;;;;;5.57;89.18;100703.94;4753811;30;20308;-88
2020/12/13 18:56:53;;;;;;;9.73;4.90;;;;;;;5.56;89.12;100703.06;4745541;30;20544;-88
2020/12/13 18:59:44;;;;;;;10.60;4.53;;;;;;;5.58;88.18;100698.50;4706592;30;20056;-88
2020/12/13 19:05:23;;;;;;;10.00;4.82;;;;;;;5.51;88.97;100683.88;4758009;29;20199;-87
2020/12/13 19:11:14;;;;;;;11.02;4.88;;;;;;;5.52;87.78;100664.22;4771256;29;20062;-87
2020/12/13 19:13:41;;;;;;;9.43;4.25;;;;;;;5.54;87.58;100664.13;4782927;29;20052;-87
2020/12/13 19:16:11;;;;;;;12.15;4.18;;;;;;;5.48;88.41;100662.72;4758600;29;20134;-89
2020/12/13 19:18:42;;;;;;;13.18;4.32;;;;;;;5.42;87.91;100672.00;4771954;29;20047;-87
2020/12/13 19:21:16;;;;;;;8.85;4.30;;;;;;;5.40;88.78;100662.41;4745181;29;20079;-88